createdAt,value
2018-10-11T00:01:06.807Z,11.50
2018-10-11T00:03:41.496Z,11.50
2018-10-11T00:06:16.015Z,11.40
2018-10-11T00:08:50.538Z,11.20
2018-10-11T00:11:25.351Z,11.20
2018-10-11T00:14:00.141Z,11.20
2018-10-11T00:16:35.083Z,10.90
2018-10-11T00:19:09.866Z,10.80
2018-10-11T00:21:44.362Z,10.80
2018-10-11T00:24:18.948Z,10.80
2018-10-11T00:26:53.967Z,10.80
2018-10-11T00:29:28.766Z,10.80
2018-10-11T00:32:03.376Z,10.50
2018-10-11T00:34:37.993Z,10.40
2018-10-11T00:37:12.609Z,10.60
2018-10-11T00:39:47.354Z,10.70
2018-10-11T00:42:21.853Z,10.80
2018-10-11T00:44:56.425Z,10.50
2018-10-11T00:47:31.085Z,10.00
2018-10-11T00:50:05.607Z,10.10
2018-10-11T00:52:40.183Z,10.30
2018-10-11T00:55:14.800Z,10.50
2018-10-11T00:57:49.560Z,10.30
2018-10-11T01:00:24.297Z,10.30
2018-10-11T01:02:58.846Z,10.40
2018-10-11T01:05:33.302Z,10.50
2018-10-11T01:08:08.326Z,10.70
2018-10-11T01:10:42.938Z,10.70
2018-10-11T01:13:17.338Z,10.70
2018-10-11T01:15:52.131Z,10.70
2018-10-11T01:18:26.774Z,10.70
2018-10-11T01:21:01.434Z,10.80
2018-10-11T01:23:36.264Z,10.80
2018-10-11T01:26:11.001Z,10.70
2018-10-11T01:28:45.834Z,10.60
2018-10-11T01:31:21.286Z,10.60
2018-10-11T01:33:56.015Z,10.60
2018-10-11T01:36:30.823Z,10.60
2018-10-11T01:39:05.893Z,10.50
2018-10-11T01:41:40.536Z,10.00
2018-10-11T01:44:15.199Z,9.40
2018-10-11T01:46:49.801Z,9.40
2018-10-11T01:49:24.675Z,9.60
2018-10-11T01:51:59.449Z,9.70
2018-10-11T01:54:34.512Z,9.90
2018-10-11T01:57:09.959Z,10.00
2018-10-11T01:59:44.934Z,10.10
2018-10-11T02:02:20.911Z,10.00
2018-10-11T02:04:55.812Z,10.00
2018-10-11T02:07:30.892Z,10.10
2018-10-11T02:10:05.936Z,10.10
2018-10-11T02:12:40.760Z,10.10
2018-10-11T02:15:15.686Z,10.10
2018-10-11T02:17:50.624Z,10.10
2018-10-11T02:20:26.090Z,10.20
2018-10-11T02:23:00.985Z,10.30
2018-10-11T02:25:35.943Z,10.40
2018-10-11T02:28:11.220Z,10.40
2018-10-11T02:30:45.995Z,10.30
2018-10-11T02:33:21.040Z,10.20
2018-10-11T02:35:56.252Z,10.20
2018-10-11T02:38:31.223Z,10.10
2018-10-11T02:41:05.890Z,10.10
2018-10-11T02:43:40.408Z,10.10
2018-10-11T02:46:15.238Z,10.20
2018-10-11T02:48:49.928Z,10.20
2018-10-11T02:51:24.708Z,10.30
2018-10-11T02:53:59.130Z,10.30
2018-10-11T02:56:33.855Z,10.20
2018-10-11T02:59:19.867Z,10.00
2018-10-11T03:01:54.652Z,9.90
2018-10-11T03:04:30.730Z,9.90
2018-10-11T03:07:07.339Z,9.90
2018-10-11T03:09:42.879Z,10.00
2018-10-11T03:12:17.845Z,10.10
2018-10-11T03:14:52.403Z,10.10
2018-10-11T03:17:27.106Z,10.00
2018-10-11T03:20:01.591Z,10.00
2018-10-11T03:22:36.268Z,10.00
2018-10-11T03:25:11.049Z,10.00
2018-10-11T03:27:45.638Z,10.10
2018-10-11T03:30:20.456Z,10.10
2018-10-11T03:32:55.257Z,10.00
2018-10-11T03:35:30.154Z,10.00
2018-10-11T03:38:04.890Z,9.90
2018-10-11T03:40:39.722Z,9.80
2018-10-11T03:43:14.558Z,9.90
2018-10-11T03:45:49.295Z,9.90
2018-10-11T03:48:23.933Z,9.90
2018-10-11T03:50:58.559Z,9.80
2018-10-11T03:53:33.201Z,9.70
2018-10-11T03:56:07.926Z,9.60
2018-10-11T03:58:42.379Z,9.50
2018-10-11T04:01:17.224Z,9.50
2018-10-11T04:03:51.698Z,9.40
2018-10-11T04:06:26.697Z,9.50
2018-10-11T04:09:01.397Z,9.50
2018-10-11T04:11:35.817Z,9.40
2018-10-11T04:14:10.429Z,9.40
2018-10-11T04:16:45.043Z,9.40
2018-10-11T04:19:19.607Z,9.50
2018-10-11T04:21:54.219Z,9.50
2018-10-11T04:24:28.966Z,9.50
2018-10-11T04:27:03.715Z,9.50
2018-10-11T04:29:38.476Z,9.60
2018-10-11T04:32:13.061Z,9.70
2018-10-11T04:34:47.725Z,9.60
2018-10-11T04:37:22.497Z,9.60
2018-10-11T04:39:57.126Z,9.50
2018-10-11T04:42:31.942Z,9.50
2018-10-11T04:45:06.805Z,9.50
2018-10-11T04:47:41.645Z,9.50
2018-10-11T04:50:16.334Z,9.60
2018-10-11T04:52:51.277Z,9.60
2018-10-11T04:55:26.267Z,9.60
2018-10-11T04:58:00.898Z,9.60
2018-10-11T05:00:35.624Z,9.60
2018-10-11T05:03:12.196Z,9.50
2018-10-11T05:05:47.197Z,9.50
2018-10-11T05:08:22.170Z,9.50
2018-10-11T05:10:56.895Z,9.50
2018-10-11T05:13:51.443Z,9.40
2018-10-11T05:16:26.206Z,9.40
2018-10-11T05:19:03.121Z,9.30
2018-10-11T05:21:38.059Z,9.30
2018-10-11T05:24:13.191Z,9.20
2018-10-11T05:26:47.860Z,9.20
2018-10-11T05:29:22.849Z,9.10
2018-10-11T05:31:57.826Z,9.10
2018-10-11T05:34:32.674Z,8.90
2018-10-11T05:37:07.492Z,9.00
2018-10-11T05:39:42.491Z,9.00
2018-10-11T05:42:17.287Z,9.10
2018-10-11T05:44:52.373Z,9.20
2018-10-11T05:47:27.209Z,9.20
2018-10-11T05:50:01.841Z,9.30
2018-10-11T05:52:36.448Z,9.30
2018-10-11T05:55:11.436Z,9.40
2018-10-11T05:57:46.161Z,9.40
2018-10-11T06:00:21.077Z,9.50
2018-10-11T06:03:01.257Z,9.60
2018-10-11T06:05:36.025Z,9.70
2018-10-11T06:08:11.180Z,9.80
2018-10-11T06:10:46.197Z,9.90
2018-10-11T06:13:21.250Z,10.10
2018-10-11T06:15:56.004Z,10.20
2018-10-11T06:18:30.948Z,10.40
2018-10-11T06:21:05.965Z,11.20
2018-10-11T06:23:41.063Z,11.90
2018-10-11T06:26:16.132Z,12.60
2018-10-11T06:28:50.939Z,13.00
2018-10-11T06:31:25.747Z,13.40
2018-10-11T06:34:01.127Z,13.80
2018-10-11T06:36:36.012Z,14.20
2018-10-11T06:39:11.407Z,14.50
2018-10-11T06:41:46.251Z,14.80
2018-10-11T06:44:21.215Z,15.20
2018-10-11T06:46:55.833Z,15.50
2018-10-11T06:49:30.480Z,15.90
2018-10-11T06:52:05.363Z,16.20
2018-10-11T06:54:43.277Z,16.70
2018-10-11T06:59:52.713Z,17.10
2018-10-11T07:02:27.447Z,17.20
2018-10-11T07:05:02.007Z,17.30
2018-10-11T07:07:36.981Z,17.40
2018-10-11T07:10:11.800Z,17.40
2018-10-11T07:12:46.300Z,17.50
2018-10-11T07:15:21.310Z,17.50
2018-10-11T07:17:56.242Z,17.40
2018-10-11T07:20:30.858Z,17.40
2018-10-11T07:23:05.592Z,17.50
2018-10-11T07:25:40.577Z,17.60
2018-10-11T07:28:15.537Z,17.60
2018-10-11T07:30:50.388Z,17.50
2018-10-11T07:33:25.512Z,17.70
2018-10-11T07:36:00.345Z,17.80
2018-10-11T07:38:35.228Z,17.90
2018-10-11T07:41:10.047Z,18.00
2018-10-11T07:43:44.756Z,18.10
2018-10-11T07:46:19.339Z,18.20
2018-10-11T07:48:54.015Z,18.20
2018-10-11T07:51:29.003Z,18.40
2018-10-11T07:54:03.873Z,18.50
2018-10-11T07:56:38.637Z,18.60
2018-10-11T07:59:13.369Z,18.70
2018-10-11T08:01:48.168Z,18.80
2018-10-11T08:04:22.704Z,18.90
2018-10-11T08:06:57.360Z,19.00
2018-10-11T08:09:31.854Z,19.10
2018-10-11T08:12:06.793Z,19.20
2018-10-11T08:14:41.289Z,19.40
2018-10-11T08:17:16.303Z,19.50
2018-10-11T08:19:50.645Z,19.70
2018-10-11T08:22:25.312Z,19.60
2018-10-11T08:25:00.057Z,19.80
2018-10-11T08:27:34.642Z,19.90
2018-10-11T08:30:09.363Z,20.00
2018-10-11T08:32:44.536Z,20.10
2018-10-11T08:35:19.271Z,20.20
2018-10-11T08:37:53.881Z,20.40
2018-10-11T08:40:28.528Z,20.60
2018-10-11T08:43:03.548Z,20.60
2018-10-11T08:45:37.885Z,20.60
2018-10-11T08:48:12.523Z,20.60
2018-10-11T08:50:47.373Z,20.70
2018-10-11T08:53:22.124Z,20.70
2018-10-11T08:55:57.034Z,20.70
2018-10-11T08:58:31.528Z,20.80
2018-10-11T09:01:06.251Z,20.90
2018-10-11T09:03:41.346Z,21.00
2018-10-11T09:06:15.609Z,21.20
2018-10-11T09:08:50.217Z,21.20
2018-10-11T09:11:25.182Z,21.30
2018-10-11T09:13:59.848Z,21.40
2018-10-11T09:16:35.003Z,21.50
2018-10-11T09:19:09.652Z,21.40
2018-10-11T09:21:44.482Z,21.50
2018-10-11T09:24:19.351Z,21.80
2018-10-11T09:26:54.081Z,22.00
2018-10-11T09:29:28.966Z,22.10
2018-10-11T09:32:03.935Z,22.10
2018-10-11T09:34:38.706Z,22.00
2018-10-11T09:37:13.321Z,22.00
2018-10-11T09:39:48.072Z,22.00
2018-10-11T09:42:22.898Z,22.10
2018-10-11T09:44:57.667Z,22.20
2018-10-11T09:47:32.645Z,22.10
2018-10-11T09:50:07.449Z,22.10
2018-10-11T09:52:42.516Z,22.20
2018-10-11T09:55:17.459Z,22.20
2018-10-11T09:57:52.158Z,22.20
2018-10-11T10:00:32.909Z,22.30
2018-10-11T10:03:09.127Z,22.50
2018-10-11T10:05:44.051Z,22.60
2018-10-11T10:08:18.734Z,22.70
2018-10-11T10:10:53.766Z,22.60
2018-10-11T10:13:28.599Z,22.70
2018-10-11T10:16:03.285Z,22.70
2018-10-11T10:18:37.704Z,22.70
2018-10-11T10:21:12.648Z,22.80
2018-10-11T10:23:47.606Z,22.80
2018-10-11T10:26:22.675Z,22.80
2018-10-11T10:28:57.951Z,22.90
2018-10-11T10:31:33.264Z,23.10
2018-10-11T10:34:08.115Z,23.30
2018-10-11T10:36:43.673Z,23.30
2018-10-11T10:39:18.443Z,23.30
2018-10-11T10:41:53.199Z,23.30
2018-10-11T10:44:28.180Z,23.30
2018-10-11T10:47:03.193Z,23.30
2018-10-11T10:49:38.040Z,23.50
2018-10-11T10:52:14.368Z,23.60
2018-10-11T10:54:49.116Z,23.70
2018-10-11T10:57:25.528Z,23.70
2018-10-11T11:00:00.545Z,23.80
2018-10-11T11:02:35.371Z,23.80
2018-10-11T11:05:10.142Z,23.80
2018-10-11T11:07:45.040Z,23.80
2018-10-11T11:10:20.008Z,23.90
2018-10-11T11:12:54.956Z,23.90
2018-10-11T11:15:29.830Z,23.90
2018-10-11T11:18:04.809Z,23.90
2018-10-11T11:20:41.682Z,24.00
2018-10-11T11:26:09.428Z,24.30
2018-10-11T11:28:44.552Z,24.40
2018-10-11T11:34:06.806Z,24.30
2018-10-11T11:36:41.782Z,24.40
2018-10-11T11:42:44.687Z,24.60
2018-10-11T11:45:26.445Z,24.70
2018-10-11T11:48:15.334Z,24.70
2018-10-11T11:51:05.031Z,24.80
2018-10-11T11:53:57.423Z,24.80
2018-10-11T11:56:39.782Z,25.00
2018-10-11T11:59:25.613Z,24.90
2018-10-11T12:02:04.165Z,24.90
2018-10-11T12:04:39.236Z,24.80
2018-10-11T12:07:13.849Z,24.70
2018-10-11T12:09:49.062Z,24.60
2018-10-11T12:13:38.600Z,24.80
2018-10-11T12:16:21.978Z,24.90
2018-10-11T12:19:39.989Z,25.20
2018-10-11T12:22:20.530Z,25.40
2018-10-11T12:24:56.138Z,25.40
2018-10-11T12:27:42.678Z,25.30
2018-10-11T12:33:09.706Z,25.30
2018-10-11T12:35:44.142Z,25.30
2018-10-11T12:38:18.785Z,25.30
2018-10-11T12:41:06.000Z,25.30
2018-10-11T12:49:45.360Z,25.70
2018-10-11T12:52:16.830Z,25.70
2018-10-11T12:54:56.114Z,25.70
2018-10-11T12:57:31.012Z,25.80
2018-10-11T13:00:15.753Z,25.60
2018-10-11T13:02:52.170Z,25.60
2018-10-11T13:05:27.509Z,25.60
2018-10-11T13:08:02.578Z,25.50
2018-10-11T13:10:43.742Z,25.50
2018-10-11T13:13:20.297Z,25.60
2018-10-11T13:16:43.372Z,25.60
2018-10-11T13:19:23.285Z,25.80
2018-10-11T13:24:46.834Z,25.90
2018-10-11T13:30:41.724Z,26.10
2018-10-11T13:35:56.846Z,26.20
2018-10-11T13:38:49.395Z,26.00
2018-10-11T13:41:28.838Z,26.10
2018-10-11T13:44:13.454Z,26.00
2018-10-11T13:46:49.545Z,26.00
2018-10-11T13:49:40.948Z,26.00
2018-10-11T13:52:20.558Z,26.00
2018-10-11T13:54:56.295Z,26.00
2018-10-11T13:57:32.751Z,26.00
2018-10-11T14:00:11.247Z,26.00
2018-10-11T14:16:40.515Z,26.10
2018-10-11T14:22:01.801Z,25.40
2018-10-11T14:25:15.979Z,25.30
2018-10-11T14:28:17.458Z,25.10
2018-10-11T14:30:59.376Z,25.00
2018-10-11T14:33:40.719Z,24.80
2018-10-11T14:36:23.008Z,24.50
2018-10-11T14:40:38.782Z,24.40
2018-10-11T14:43:26.044Z,24.50
2018-10-11T14:46:28.823Z,24.30
2018-10-11T14:49:30.407Z,24.50
2018-10-11T14:52:36.753Z,24.40
2018-10-11T14:55:39.383Z,24.40
2018-10-11T15:01:14.608Z,24.40
2018-10-11T15:04:12.408Z,24.30
2018-10-11T15:06:59.577Z,24.30
2018-10-11T15:09:34.848Z,24.30
2018-10-11T15:12:14.312Z,24.20
2018-10-11T15:17:50.819Z,23.90
2018-10-11T15:20:32.341Z,23.70
2018-10-11T15:23:08.252Z,23.60
2018-10-11T15:25:45.358Z,23.50
2018-10-11T15:28:21.638Z,23.40
2018-10-11T15:33:41.095Z,23.20
2018-10-11T15:36:16.295Z,23.00
2018-10-11T15:38:51.994Z,22.80
2018-10-11T15:41:27.330Z,22.70
2018-10-11T15:44:02.395Z,22.70
2018-10-11T15:46:37.250Z,22.70
2018-10-11T15:49:14.096Z,22.60
2018-10-11T15:51:49.984Z,22.60
2018-10-11T15:54:24.929Z,22.50
2018-10-11T15:57:00.223Z,22.40
2018-10-11T15:59:35.315Z,22.30
2018-10-11T16:02:10.044Z,22.20
2018-10-11T16:04:44.741Z,22.00
2018-10-11T16:07:19.561Z,21.90
2018-10-11T16:09:54.782Z,21.80
2018-10-11T16:12:29.924Z,21.30
2018-10-11T16:15:05.789Z,21.10
2018-10-11T16:17:40.835Z,21.00
2018-10-11T16:20:15.716Z,20.90
2018-10-11T16:22:50.669Z,20.60
2018-10-11T16:25:25.656Z,20.50
2018-10-11T16:28:00.826Z,20.30
2018-10-11T16:30:35.631Z,20.00
2018-10-11T16:33:10.621Z,19.80
2018-10-11T16:35:45.614Z,19.90
2018-10-11T16:38:20.392Z,19.90
2018-10-11T16:40:55.051Z,19.90
2018-10-11T16:43:29.918Z,19.80
2018-10-11T16:46:04.845Z,19.70
2018-10-11T16:48:39.605Z,19.60
2018-10-11T16:51:14.479Z,19.40
2018-10-11T16:53:49.205Z,19.30
2018-10-11T16:56:23.947Z,19.20
2018-10-11T16:58:58.820Z,19.10
2018-10-11T17:01:33.844Z,19.10
2018-10-11T17:04:08.562Z,19.10
2018-10-11T17:06:43.416Z,19.00
2018-10-11T17:09:18.154Z,19.10
2018-10-11T17:11:52.521Z,19.00
2018-10-11T17:14:27.260Z,19.00
2018-10-11T17:17:02.172Z,18.90
2018-10-11T17:19:37.246Z,18.90
2018-10-11T17:22:12.069Z,18.90
2018-10-11T17:24:46.650Z,18.90
2018-10-11T17:27:21.229Z,18.90
2018-10-11T17:29:56.243Z,18.90
2018-10-11T17:32:30.978Z,19.00
2018-10-11T17:35:05.795Z,19.00
2018-10-11T17:37:40.644Z,19.00
2018-10-11T17:40:15.305Z,18.90
2018-10-11T17:42:49.883Z,18.90
2018-10-11T17:45:24.848Z,18.80
2018-10-11T17:47:59.789Z,18.70
2018-10-11T17:50:34.567Z,18.70
2018-10-11T17:53:09.304Z,18.70
2018-10-11T17:55:44.106Z,18.70
2018-10-11T17:58:19.538Z,18.60
2018-10-11T18:00:54.866Z,18.60
2018-10-11T18:03:29.532Z,18.60
2018-10-11T18:06:04.254Z,18.50
2018-10-11T18:08:38.934Z,18.40
2018-10-11T18:11:13.669Z,18.30
2018-10-11T18:13:48.386Z,18.10
2018-10-11T18:16:23.229Z,18.00
2018-10-11T18:18:58.191Z,18.00
2018-10-11T18:21:32.825Z,18.00
2018-10-11T18:24:07.709Z,18.00
2018-10-11T18:26:42.329Z,18.00
2018-10-11T18:29:17.194Z,17.90
2018-10-11T18:31:51.980Z,18.00
2018-10-11T18:34:26.706Z,18.00
2018-10-11T18:37:01.582Z,18.10
2018-10-11T18:39:36.355Z,18.10
2018-10-11T18:42:11.170Z,18.10
2018-10-11T18:44:45.862Z,18.10
2018-10-11T18:47:20.410Z,18.10
2018-10-11T18:49:55.241Z,18.10
2018-10-11T18:52:29.985Z,18.10
2018-10-11T18:55:04.676Z,18.10
2018-10-11T18:57:39.428Z,17.90
2018-10-11T19:00:14.780Z,17.80
2018-10-11T19:02:49.559Z,17.80
2018-10-11T19:05:24.490Z,17.80
2018-10-11T19:07:59.490Z,17.80
2018-10-11T19:10:34.171Z,17.80
2018-10-11T19:13:08.780Z,17.70
2018-10-11T19:15:43.559Z,17.80
2018-10-11T19:18:18.493Z,17.70
2018-10-11T19:20:53.412Z,17.60
2018-10-11T19:23:28.837Z,17.50
2018-10-11T19:26:03.518Z,17.50
2018-10-11T19:28:38.489Z,17.50
2018-10-11T19:31:13.351Z,17.40
2018-10-11T19:33:47.849Z,17.40
2018-10-11T19:36:22.535Z,17.40
2018-10-11T19:38:57.477Z,17.30
2018-10-11T19:41:32.101Z,17.30
2018-10-11T19:44:06.959Z,17.30
2018-10-11T19:46:41.818Z,17.20
2018-10-11T19:49:16.570Z,17.30
2018-10-11T19:51:51.390Z,17.40
2018-10-11T19:54:26.079Z,17.40
2018-10-11T19:57:00.979Z,17.40
2018-10-11T19:59:35.927Z,17.30
2018-10-11T20:02:10.602Z,17.20
2018-10-11T20:04:45.204Z,17.20
2018-10-11T20:07:20.102Z,17.30
2018-10-11T20:09:54.772Z,17.30
2018-10-11T20:12:29.305Z,17.40
2018-10-11T20:15:04.223Z,17.40
2018-10-11T20:17:39.158Z,17.20
2018-10-11T20:20:15.517Z,16.90
2018-10-11T20:22:50.053Z,16.60
2018-10-11T20:25:24.894Z,16.40
2018-10-11T20:27:59.895Z,16.50
2018-10-11T20:30:34.800Z,16.60
2018-10-11T20:33:09.564Z,16.70
2018-10-11T20:38:19.426Z,16.70
2018-10-11T20:40:54.265Z,16.80
2018-10-11T20:43:29.086Z,16.90
2018-10-11T20:46:03.775Z,16.80
2018-10-11T20:48:38.549Z,16.80
2018-10-11T20:51:13.200Z,16.90
2018-10-11T20:53:47.743Z,16.90
2018-10-11T20:56:22.272Z,17.00
2018-10-11T20:58:56.939Z,17.00
2018-10-11T21:01:31.832Z,17.00
2018-10-11T21:04:06.740Z,17.00
2018-10-11T21:06:41.703Z,17.10
2018-10-11T21:09:16.437Z,17.00
2018-10-11T21:11:51.080Z,17.00
2018-10-11T21:14:25.833Z,17.00
2018-10-11T21:17:00.780Z,17.00
2018-10-11T21:19:35.702Z,17.00
2018-10-11T21:22:10.272Z,16.80
2018-10-11T21:24:45.230Z,16.80
2018-10-11T21:27:19.832Z,16.80
2018-10-11T21:29:54.403Z,16.80
2018-10-11T21:32:29.172Z,16.90
2018-10-11T21:35:03.896Z,16.90
2018-10-11T21:37:38.418Z,16.90
2018-10-11T21:40:13.112Z,16.80
2018-10-11T21:42:47.585Z,16.60
2018-10-11T21:45:22.437Z,16.60
2018-10-11T21:47:57.147Z,16.80
2018-10-11T21:50:32.075Z,16.80
2018-10-11T21:53:06.856Z,16.90
2018-10-11T21:55:41.609Z,16.90
2018-10-11T21:58:16.119Z,16.90
2018-10-11T22:00:55.857Z,16.90
2018-10-11T22:03:30.735Z,17.00
2018-10-11T22:06:05.216Z,17.10
2018-10-11T22:08:40.361Z,17.30
2018-10-11T22:11:15.039Z,17.50
2018-10-11T22:13:49.667Z,17.50
2018-10-11T22:16:24.458Z,17.40
2018-10-11T22:18:59.133Z,17.30
2018-10-11T22:21:33.757Z,17.40
2018-10-11T22:24:09.175Z,17.30
2018-10-11T22:26:43.881Z,17.10
2018-10-11T22:29:18.801Z,17.00
2018-10-11T22:31:53.592Z,17.00
2018-10-11T22:34:28.473Z,17.10
2018-10-11T22:37:03.445Z,17.10
2018-10-11T22:39:37.956Z,16.80
2018-10-11T22:42:12.563Z,16.90
2018-10-11T22:44:47.334Z,17.00
2018-10-11T22:47:22.057Z,17.00
2018-10-11T22:49:56.561Z,17.00
2018-10-11T22:52:31.020Z,17.10
2018-10-11T22:55:05.760Z,17.00
2018-10-11T22:57:40.462Z,17.00
2018-10-11T23:00:14.933Z,17.10
2018-10-11T23:02:50.237Z,16.90
2018-10-11T23:05:24.846Z,17.10
2018-10-11T23:07:59.486Z,17.20
2018-10-11T23:10:34.074Z,17.20
2018-10-11T23:13:08.664Z,17.30
2018-10-11T23:15:44.334Z,17.40
2018-10-11T23:18:18.892Z,17.30
2018-10-11T23:20:53.513Z,17.20
2018-10-11T23:23:28.225Z,17.20
2018-10-11T23:26:02.968Z,17.30
2018-10-11T23:28:37.585Z,17.40
2018-10-11T23:31:12.583Z,17.50
2018-10-11T23:33:47.392Z,17.60
2018-10-11T23:36:22.017Z,17.70
2018-10-11T23:38:56.503Z,17.70
2018-10-11T23:41:31.375Z,17.70
2018-10-11T23:44:05.808Z,17.70
2018-10-11T23:46:40.266Z,17.80
2018-10-11T23:49:14.857Z,17.90
2018-10-11T23:51:49.444Z,17.90
2018-10-11T23:54:24.057Z,17.90
2018-10-11T23:56:58.682Z,18.00
2018-10-11T23:59:33.208Z,18.00
